Terminal Aerodrome Forecast
Issued by NWS

Home | Current Version | Previous Version | Text Only | Print | Product List | Glossary On
Versions: 1 2 3 4 5 6 7 8 9 10 11 12 13 14 15 16
000
FTAK31 PANC 181727
TAFADL
TAF
PADL 181727Z 1818/1918 27008KT P6SM SCT040 SCT250
     FM182100 28009G16KT P6SM SCT040 SCT250
     FM190400 28007KT P6SM SCT040 SCT250=

USA.gov is the U.S. government's official web portal to all federal, state and local government web resources and services.